Basildon, United Kingdom
Current Conditions -  °F | °C
As of 5:20 PM on Sunday 23 Nov 2014 (Local Time) from EGMC Reporting Station
Moderate Rain Moderate Rain  
Wind Chill: 39°   Ceiling: 3500
Heat Index: 43°   Visibility: 5mi
Dew Point: 41°   Wind: 6mph
Humidity: 93%   Direction: 340°NNW
Pressure: 30.03"   Gusts: NA
Location:  51.57°N, 0.49°E
Report Text: EGMC 231720Z 34005KT 8000 RA SCT027 BKN035 06/05 Q1017
Loading
Personal Weather Stations






























Interactive Weather Map New forecast layout! Learn more

10-Day Weather Forecast

Advertisements
Track Severe Weather on mobile